sensor_id;sensor_type;location;lat;lon;timestamp;P1;durP1;ratioP1;P2;durP2;ratioP2
63714;SDS011;49858;48.956;9.076;2022-07-12T00:01:47;2.65;;;2.20;;
63714;SDS011;49858;48.956;9.076;2022-07-12T00:04:15;4.82;;;2.97;;
63714;SDS011;49858;48.956;9.076;2022-07-12T00:06:43;4.18;;;3.03;;
63714;SDS011;49858;48.956;9.076;2022-07-12T00:09:10;5.95;;;3.47;;
63714;SDS011;49858;48.956;9.076;2022-07-12T00:11:37;3.88;;;3.25;;
63714;SDS011;49858;48.956;9.076;2022-07-12T00:14:04;5.63;;;3.42;;
63714;SDS011;49858;48.956;9.076;2022-07-12T00:16:31;3.30;;;2.97;;
63714;SDS011;49858;48.956;9.076;2022-07-12T00:18:58;5.72;;;3.90;;
63714;SDS011;49858;48.956;9.076;2022-07-12T00:21:26;5.13;;;3.75;;
63714;SDS011;49858;48.956;9.076;2022-07-12T00:23:56;5.93;;;4.15;;
63714;SDS011;49858;48.956;9.076;2022-07-12T00:26:23;4.82;;;4.00;;
63714;SDS011;49858;48.956;9.076;2022-07-12T00:28:50;5.97;;;3.90;;
63714;SDS011;49858;48.956;9.076;2022-07-12T00:31:17;4.18;;;3.60;;
63714;SDS011;49858;48.956;9.076;2022-07-12T00:33:43;4.20;;;3.47;;
63714;SDS011;49858;48.956;9.076;2022-07-12T00:36:10;4.55;;;3.42;;
63714;SDS011;49858;48.956;9.076;2022-07-12T00:38:38;6.13;;;4.05;;
63714;SDS011;49858;48.956;9.076;2022-07-12T00:41:05;4.32;;;3.20;;
63714;SDS011;49858;48.956;9.076;2022-07-12T00:43:31;4.28;;;3.22;;
63714;SDS011;49858;48.956;9.076;2022-07-12T00:45:58;4.80;;;3.05;;
63714;SDS011;49858;48.956;9.076;2022-07-12T00:48:24;5.15;;;3.60;;
63714;SDS011;49858;48.956;9.076;2022-07-12T00:50:51;4.97;;;3.15;;
63714;SDS011;49858;48.956;9.076;2022-07-12T00:53:19;8.02;;;3.05;;
63714;SDS011;49858;48.956;9.076;2022-07-12T00:55:52;4.57;;;3.30;;
63714;SDS011;49858;48.956;9.076;2022-07-12T00:58:20;4.00;;;3.33;;
63714;SDS011;49858;48.956;9.076;2022-07-12T01:00:49;3.72;;;2.63;;
63714;SDS011;49858;48.956;9.076;2022-07-12T01:03:15;3.63;;;2.58;;
63714;SDS011;49858;48.956;9.076;2022-07-12T01:05:42;3.47;;;2.30;;
63714;SDS011;49858;48.956;9.076;2022-07-12T01:08:11;3.85;;;2.15;;
63714;SDS011;49858;48.956;9.076;2022-07-12T01:10:37;4.28;;;2.25;;
63714;SDS011;49858;48.956;9.076;2022-07-12T01:13:07;6.22;;;2.33;;
63714;SDS011;49858;48.956;9.076;2022-07-12T01:15:34;2.60;;;1.90;;
63714;SDS011;49858;48.956;9.076;2022-07-12T01:18:02;2.60;;;1.92;;
63714;SDS011;49858;48.956;9.076;2022-07-12T01:20:31;3.80;;;2.40;;
63714;SDS011;49858;48.956;9.076;2022-07-12T01:22:59;3.35;;;2.10;;
63714;SDS011;49858;48.956;9.076;2022-07-12T01:25:26;3.05;;;1.95;;
63714;SDS011;49858;48.956;9.076;2022-07-12T01:27:53;2.90;;;2.10;;
63714;SDS011;49858;48.956;9.076;2022-07-12T01:30:20;3.35;;;1.98;;
63714;SDS011;49858;48.956;9.076;2022-07-12T01:32:46;3.92;;;1.90;;
63714;SDS011;49858;48.956;9.076;2022-07-12T01:35:13;3.13;;;2.25;;
63714;SDS011;49858;48.956;9.076;2022-07-12T01:37:41;3.90;;;2.00;;
63714;SDS011;49858;48.956;9.076;2022-07-12T01:40:10;4.57;;;1.85;;
63714;SDS011;49858;48.956;9.076;2022-07-12T01:42:38;3.58;;;2.35;;
63714;SDS011;49858;48.956;9.076;2022-07-12T01:45:06;4.00;;;2.33;;
63714;SDS011;49858;48.956;9.076;2022-07-12T01:47:34;3.20;;;2.40;;
63714;SDS011;49858;48.956;9.076;2022-07-12T01:50:04;3.53;;;2.20;;
63714;SDS011;49858;48.956;9.076;2022-07-12T01:52:32;4.05;;;2.13;;
63714;SDS011;49858;48.956;9.076;2022-07-12T01:54:59;3.17;;;2.30;;
63714;SDS011;49858;48.956;9.076;2022-07-12T01:57:27;2.92;;;1.80;;
63714;SDS011;49858;48.956;9.076;2022-07-12T01:59:55;2.35;;;1.77;;
63714;SDS011;49858;48.956;9.076;2022-07-12T02:02:22;2.95;;;2.20;;
63714;SDS011;49858;48.956;9.076;2022-07-12T02:04:51;3.10;;;2.15;;
63714;SDS011;49858;48.956;9.076;2022-07-12T02:07:19;3.30;;;1.73;;
63714;SDS011;49858;48.956;9.076;2022-07-12T02:09:45;3.15;;;1.90;;
63714;SDS011;49858;48.956;9.076;2022-07-12T02:12:12;3.10;;;1.98;;
63714;SDS011;49858;48.956;9.076;2022-07-12T02:14:40;2.58;;;1.67;;
63714;SDS011;49858;48.956;9.076;2022-07-12T02:17:07;3.58;;;2.25;;
63714;SDS011;49858;48.956;9.076;2022-07-12T02:19:34;3.15;;;2.05;;
63714;SDS011;49858;48.956;9.076;2022-07-12T02:22:01;3.80;;;2.25;;
63714;SDS011;49858;48.956;9.076;2022-07-12T02:24:28;2.97;;;2.10;;
63714;SDS011;49858;48.956;9.076;2022-07-12T02:26:55;4.03;;;1.98;;
63714;SDS011;49858;48.956;9.076;2022-07-12T02:29:22;2.63;;;1.90;;
63714;SDS011;49858;48.956;9.076;2022-07-12T02:31:50;4.07;;;2.05;;
63714;SDS011;49858;48.956;9.076;2022-07-12T02:34:16;5.55;;;2.05;;
63714;SDS011;49858;48.956;9.076;2022-07-12T02:36:43;2.10;;;1.90;;
63714;SDS011;49858;48.956;9.076;2022-07-12T02:39:10;5.22;;;2.55;;
63714;SDS011;49858;48.956;9.076;2022-07-12T02:41:37;5.40;;;2.80;;
63714;SDS011;49858;48.956;9.076;2022-07-12T02:44:04;5.22;;;2.50;;
63714;SDS011;49858;48.956;9.076;2022-07-12T02:46:31;3.65;;;2.30;;
63714;SDS011;49858;48.956;9.076;2022-07-12T02:48:59;6.22;;;2.70;;
63714;SDS011;49858;48.956;9.076;2022-07-12T02:51:26;3.67;;;2.38;;
63714;SDS011;49858;48.956;9.076;2022-07-12T02:53:52;3.58;;;2.17;;
63714;SDS011;49858;48.956;9.076;2022-07-12T02:56:19;2.67;;;2.08;;
63714;SDS011;49858;48.956;9.076;2022-07-12T02:58:46;2.72;;;2.30;;
63714;SDS011;49858;48.956;9.076;2022-07-12T03:01:13;4.32;;;2.30;;
63714;SDS011;49858;48.956;9.076;2022-07-12T03:03:40;9.23;;;2.17;;
63714;SDS011;49858;48.956;9.076;2022-07-12T03:06:08;4.57;;;2.28;;
63714;SDS011;49858;48.956;9.076;2022-07-12T03:08:34;3.40;;;2.50;;
63714;SDS011;49858;48.956;9.076;2022-07-12T03:11:01;3.75;;;2.47;;
63714;SDS011;49858;48.956;9.076;2022-07-12T03:13:28;3.35;;;2.45;;
63714;SDS011;49858;48.956;9.076;2022-07-12T03:15:55;3.53;;;2.38;;
63714;SDS011;49858;48.956;9.076;2022-07-12T03:18:23;5.65;;;2.38;;
63714;SDS011;49858;48.956;9.076;2022-07-12T03:20:50;4.60;;;2.10;;
63714;SDS011;49858;48.956;9.076;2022-07-12T03:23:18;4.65;;;2.78;;
63714;SDS011;49858;48.956;9.076;2022-07-12T03:25:45;3.55;;;2.30;;
63714;SDS011;49858;48.956;9.076;2022-07-12T03:28:11;3.85;;;2.58;;
63714;SDS011;49858;48.956;9.076;2022-07-12T03:30:38;3.42;;;2.60;;
63714;SDS011;49858;48.956;9.076;2022-07-12T03:33:05;3.40;;;2.55;;
63714;SDS011;49858;48.956;9.076;2022-07-12T03:35:31;3.50;;;2.58;;
63714;SDS011;49858;48.956;9.076;2022-07-12T03:37:58;4.20;;;3.30;;
63714;SDS011;49858;48.956;9.076;2022-07-12T03:40:26;5.97;;;3.80;;
63714;SDS011;49858;48.956;9.076;2022-07-12T03:42:56;5.68;;;3.60;;
63714;SDS011;49858;48.956;9.076;2022-07-12T03:45:23;5.03;;;3.35;;
63714;SDS011;49858;48.956;9.076;2022-07-12T03:47:51;7.22;;;3.75;;
63714;SDS011;49858;48.956;9.076;2022-07-12T03:50:18;4.50;;;3.20;;
63714;SDS011;49858;48.956;9.076;2022-07-12T03:52:45;5.05;;;3.20;;
63714;SDS011;49858;48.956;9.076;2022-07-12T03:55:11;5.05;;;3.80;;
63714;SDS011;49858;48.956;9.076;2022-07-12T03:57:40;4.82;;;3.45;;
63714;SDS011;49858;48.956;9.076;2022-07-12T04:00:09;5.47;;;3.60;;
63714;SDS011;49858;48.956;9.076;2022-07-12T04:02:38;5.13;;;3.45;;
63714;SDS011;49858;48.956;9.076;2022-07-12T04:05:06;4.93;;;3.42;;
63714;SDS011;49858;48.956;9.076;2022-07-12T04:07:34;4.70;;;3.10;;
63714;SDS011;49858;48.956;9.076;2022-07-12T04:10:01;4.28;;;3.00;;
63714;SDS011;49858;48.956;9.076;2022-07-12T04:12:29;7.05;;;4.00;;
63714;SDS011;49858;48.956;9.076;2022-07-12T04:14:57;5.35;;;3.38;;
63714;SDS011;49858;48.956;9.076;2022-07-12T04:17:24;6.28;;;3.97;;
63714;SDS011;49858;48.956;9.076;2022-07-12T04:19:53;5.22;;;3.20;;
63714;SDS011;49858;48.956;9.076;2022-07-12T04:22:20;5.03;;;3.35;;
63714;SDS011;49858;48.956;9.076;2022-07-12T04:24:46;8.18;;;3.75;;
63714;SDS011;49858;48.956;9.076;2022-07-12T04:27:13;6.53;;;4.65;;
63714;SDS011;49858;48.956;9.076;2022-07-12T04:29:40;5.45;;;4.25;;
63714;SDS011;49858;48.956;9.076;2022-07-12T04:32:09;6.35;;;3.95;;
63714;SDS011;49858;48.956;9.076;2022-07-12T04:34:36;5.30;;;3.95;;
63714;SDS011;49858;48.956;9.076;2022-07-12T04:37:03;4.70;;;3.60;;
63714;SDS011;49858;48.956;9.076;2022-07-12T04:39:30;3.78;;;3.38;;
63714;SDS011;49858;48.956;9.076;2022-07-12T04:41:56;5.13;;;3.25;;
63714;SDS011;49858;48.956;9.076;2022-07-12T04:44:24;7.50;;;3.78;;
63714;SDS011;49858;48.956;9.076;2022-07-12T04:46:50;5.30;;;3.70;;
63714;SDS011;49858;48.956;9.076;2022-07-12T04:49:18;4.50;;;3.47;;
63714;SDS011;49858;48.956;9.076;2022-07-12T04:51:45;4.85;;;3.83;;
63714;SDS011;49858;48.956;9.076;2022-07-12T04:54:12;5.32;;;3.45;;
63714;SDS011;49858;48.956;9.076;2022-07-12T04:56:38;6.85;;;3.65;;
63714;SDS011;49858;48.956;9.076;2022-07-12T04:59:05;4.38;;;3.50;;
63714;SDS011;49858;48.956;9.076;2022-07-12T05:01:31;4.50;;;3.40;;
63714;SDS011;49858;48.956;9.076;2022-07-12T05:03:58;5.28;;;3.72;;
63714;SDS011;49858;48.956;9.076;2022-07-12T05:06:27;4.63;;;3.25;;
63714;SDS011;49858;48.956;9.076;2022-07-12T05:08:54;7.32;;;3.33;;
63714;SDS011;49858;48.956;9.076;2022-07-12T05:11:20;4.65;;;3.50;;
63714;SDS011;49858;48.956;9.076;2022-07-12T05:13:47;6.32;;;3.88;;
63714;SDS011;49858;48.956;9.076;2022-07-12T05:16:14;4.50;;;3.22;;
63714;SDS011;49858;48.956;9.076;2022-07-12T05:18:40;6.43;;;3.58;;
63714;SDS011;49858;48.956;9.076;2022-07-12T05:21:07;6.30;;;3.65;;
63714;SDS011;49858;48.956;9.076;2022-07-12T05:23:37;9.00;;;3.47;;
63714;SDS011;49858;48.956;9.076;2022-07-12T05:26:04;4.20;;;3.05;;
63714;SDS011;49858;48.956;9.076;2022-07-12T05:28:31;4.80;;;2.95;;
63714;SDS011;49858;48.956;9.076;2022-07-12T05:30:57;4.20;;;3.03;;
63714;SDS011;49858;48.956;9.076;2022-07-12T05:33:24;5.18;;;3.30;;
63714;SDS011;49858;48.956;9.076;2022-07-12T05:35:52;5.55;;;3.10;;
63714;SDS011;49858;48.956;9.076;2022-07-12T05:38:19;4.95;;;3.05;;
63714;SDS011;49858;48.956;9.076;2022-07-12T05:40:47;4.70;;;2.97;;
63714;SDS011;49858;48.956;9.076;2022-07-12T05:43:14;4.40;;;3.10;;
63714;SDS011;49858;48.956;9.076;2022-07-12T05:45:42;7.10;;;2.78;;
63714;SDS011;49858;48.956;9.076;2022-07-12T05:48:08;4.10;;;2.90;;
63714;SDS011;49858;48.956;9.076;2022-07-12T05:50:35;3.35;;;2.67;;
63714;SDS011;49858;48.956;9.076;2022-07-12T05:53:02;4.20;;;2.78;;
63714;SDS011;49858;48.956;9.076;2022-07-12T05:55:50;4.47;;;2.47;;
63714;SDS011;49858;48.956;9.076;2022-07-12T05:58:18;3.38;;;2.72;;
63714;SDS011;49858;48.956;9.076;2022-07-12T06:00:45;5.50;;;2.78;;
63714;SDS011;49858;48.956;9.076;2022-07-12T06:03:12;5.50;;;2.83;;
63714;SDS011;49858;48.956;9.076;2022-07-12T06:05:39;2.78;;;2.10;;
63714;SDS011;49858;48.956;9.076;2022-07-12T06:08:06;3.55;;;2.08;;
63714;SDS011;49858;48.956;9.076;2022-07-12T06:10:33;5.68;;;2.28;;
63714;SDS011;49858;48.956;9.076;2022-07-12T06:13:01;2.63;;;2.17;;
63714;SDS011;49858;48.956;9.076;2022-07-12T06:15:28;2.70;;;1.85;;
63714;SDS011;49858;48.956;9.076;2022-07-12T06:17:57;2.60;;;1.95;;
63714;SDS011;49858;48.956;9.076;2022-07-12T06:20:26;3.63;;;2.50;;
63714;SDS011;49858;48.956;9.076;2022-07-12T06:22:52;2.85;;;1.80;;
63714;SDS011;49858;48.956;9.076;2022-07-12T06:25:19;4.72;;;2.20;;
63714;SDS011;49858;48.956;9.076;2022-07-12T06:27:46;4.78;;;2.80;;
63714;SDS011;49858;48.956;9.076;2022-07-12T06:30:16;2.63;;;1.92;;
63714;SDS011;49858;48.956;9.076;2022-07-12T06:32:43;1.73;;;1.30;;
63714;SDS011;49858;48.956;9.076;2022-07-12T06:35:11;2.83;;;1.65;;
63714;SDS011;49858;48.956;9.076;2022-07-12T06:37:38;2.90;;;1.63;;
63714;SDS011;49858;48.956;9.076;2022-07-12T06:40:05;3.80;;;1.85;;
63714;SDS011;49858;48.956;9.076;2022-07-12T06:42:35;5.57;;;1.50;;
63714;SDS011;49858;48.956;9.076;2022-07-12T06:45:02;2.42;;;1.25;;
63714;SDS011;49858;48.956;9.076;2022-07-12T06:47:32;1.85;;;1.42;;
63714;SDS011;49858;48.956;9.076;2022-07-12T06:49:59;2.22;;;1.10;;
63714;SDS011;49858;48.956;9.076;2022-07-12T06:52:26;2.25;;;1.35;;
63714;SDS011;49858;48.956;9.076;2022-07-12T06:54:52;1.83;;;1.25;;
63714;SDS011;49858;48.956;9.076;2022-07-12T06:57:19;1.77;;;1.30;;
63714;SDS011;49858;48.956;9.076;2022-07-12T06:59:46;2.78;;;1.42;;
63714;SDS011;49858;48.956;9.076;2022-07-12T07:02:13;2.17;;;1.63;;
63714;SDS011;49858;48.956;9.076;2022-07-12T07:04:41;2.42;;;1.10;;
63714;SDS011;49858;48.956;9.076;2022-07-12T07:07:07;2.45;;;1.33;;
63714;SDS011;49858;48.956;9.076;2022-07-12T07:09:34;1.50;;;1.10;;
63714;SDS011;49858;48.956;9.076;2022-07-12T07:12:01;2.75;;;1.33;;
63714;SDS011;49858;48.956;9.076;2022-07-12T07:14:28;1.38;;;1.10;;
63714;SDS011;49858;48.956;9.076;2022-07-12T07:16:55;1.65;;;1.00;;
63714;SDS011;49858;48.956;9.076;2022-07-12T07:19:23;1.27;;;1.00;;
63714;SDS011;49858;48.956;9.076;2022-07-12T07:21:53;0.98;;;0.80;;
63714;SDS011;49858;48.956;9.076;2022-07-12T07:24:20;2.55;;;0.80;;
63714;SDS011;49858;48.956;9.076;2022-07-12T07:26:47;0.88;;;0.60;;
63714;SDS011;49858;48.956;9.076;2022-07-12T07:29:14;1.63;;;0.70;;
63714;SDS011;49858;48.956;9.076;2022-07-12T07:31:58;0.80;;;0.60;;
63714;SDS011;49858;48.956;9.076;2022-07-12T07:34:25;1.20;;;0.88;;
63714;SDS011;49858;48.956;9.076;2022-07-12T07:36:53;1.70;;;0.60;;
63714;SDS011;49858;48.956;9.076;2022-07-12T07:39:20;2.05;;;0.60;;
63714;SDS011;49858;48.956;9.076;2022-07-12T07:41:46;1.23;;;0.55;;
63714;SDS011;49858;48.956;9.076;2022-07-12T07:44:13;0.52;;;0.40;;
63714;SDS011;49858;48.956;9.076;2022-07-12T07:46:40;1.13;;;0.40;;
63714;SDS011;49858;48.956;9.076;2022-07-12T07:49:07;1.17;;;0.70;;
63714;SDS011;49858;48.956;9.076;2022-07-12T07:51:34;1.60;;;0.90;;
63714;SDS011;49858;48.956;9.076;2022-07-12T07:54:02;0.80;;;0.50;;
63714;SDS011;49858;48.956;9.076;2022-07-12T07:56:29;1.05;;;0.50;;
63714;SDS011;49858;48.956;9.076;2022-07-12T07:58:56;0.77;;;0.50;;
63714;SDS011;49858;48.956;9.076;2022-07-12T08:01:22;1.08;;;0.47;;
63714;SDS011;49858;48.956;9.076;2022-07-12T08:04:07;0.57;;;0.40;;
63714;SDS011;49858;48.956;9.076;2022-07-12T08:06:35;1.15;;;0.57;;
63714;SDS011;49858;48.956;9.076;2022-07-12T08:09:03;0.40;;;0.40;;
63714;SDS011;49858;48.956;9.076;2022-07-12T08:11:31;2.53;;;0.60;;
63714;SDS011;49858;48.956;9.076;2022-07-12T08:13:58;0.63;;;0.30;;
63714;SDS011;49858;48.956;9.076;2022-07-12T08:16:25;0.43;;;0.30;;
63714;SDS011;49858;48.956;9.076;2022-07-12T08:18:52;0.43;;;0.30;;
63714;SDS011;49858;48.956;9.076;2022-07-12T08:21:18;0.50;;;0.40;;
63714;SDS011;49858;48.956;9.076;2022-07-12T08:23:45;0.63;;;0.40;;
63714;SDS011;49858;48.956;9.076;2022-07-12T08:26:13;0.50;;;0.40;;
63714;SDS011;49858;48.956;9.076;2022-07-12T08:28:40;0.65;;;0.40;;
63714;SDS011;49858;48.956;9.076;2022-07-12T08:31:07;0.60;;;0.43;;
63714;SDS011;49858;48.956;9.076;2022-07-12T08:33:34;0.80;;;0.50;;
63714;SDS011;49858;48.956;9.076;2022-07-12T08:36:01;1.95;;;0.45;;
63714;SDS011;49858;48.956;9.076;2022-07-12T08:38:28;0.25;;;0.20;;
63714;SDS011;49858;48.956;9.076;2022-07-12T08:40:57;1.17;;;0.50;;
63714;SDS011;49858;48.956;9.076;2022-07-12T08:43:27;0.73;;;0.30;;
63714;SDS011;49858;48.956;9.076;2022-07-12T08:45:54;1.48;;;0.50;;
63714;SDS011;49858;48.956;9.076;2022-07-12T08:48:21;1.08;;;0.45;;
63714;SDS011;49858;48.956;9.076;2022-07-12T08:50:59;0.50;;;0.40;;
63714;SDS011;49858;48.956;9.076;2022-07-12T08:53:27;0.80;;;0.45;;
63714;SDS011;49858;48.956;9.076;2022-07-12T08:55:53;0.63;;;0.43;;
63714;SDS011;49858;48.956;9.076;2022-07-12T08:58:20;1.10;;;0.50;;
63714;SDS011;49858;48.956;9.076;2022-07-12T09:00:48;0.70;;;0.47;;
63714;SDS011;49858;48.956;9.076;2022-07-12T09:03:15;0.50;;;0.38;;
63714;SDS011;49858;48.956;9.076;2022-07-12T09:05:46;2.22;;;0.40;;
63714;SDS011;49858;48.956;9.076;2022-07-12T09:08:16;0.82;;;0.38;;
63714;SDS011;49858;48.956;9.076;2022-07-12T09:10:53;0.90;;;0.30;;
63714;SDS011;49858;48.956;9.076;2022-07-12T09:16:17;0.70;;;0.50;;
63714;SDS011;49858;48.956;9.076;2022-07-12T09:18:45;0.47;;;0.40;;
63714;SDS011;49858;48.956;9.076;2022-07-12T09:21:20;1.00;;;0.50;;
63714;SDS011;49858;48.956;9.076;2022-07-12T09:23:52;0.98;;;0.40;;
63714;SDS011;49858;48.956;9.076;2022-07-12T09:26:21;0.40;;;0.30;;
63714;SDS011;49858;48.956;9.076;2022-07-12T09:28:49;0.57;;;0.30;;
63714;SDS011;49858;48.956;9.076;2022-07-12T09:31:18;0.50;;;0.40;;
63714;SDS011;49858;48.956;9.076;2022-07-12T09:34:00;0.43;;;0.30;;
63714;SDS011;49858;48.956;9.076;2022-07-12T09:36:54;1.88;;;0.50;;
63714;SDS011;49858;48.956;9.076;2022-07-12T09:39:22;1.67;;;0.60;;
63714;SDS011;49858;48.956;9.076;2022-07-12T09:41:50;0.65;;;0.38;;
63714;SDS011;49858;48.956;9.076;2022-07-12T09:44:19;0.50;;;0.32;;
63714;SDS011;49858;48.956;9.076;2022-07-12T09:46:48;0.88;;;0.40;;
63714;SDS011;49858;48.956;9.076;2022-07-12T09:49:16;0.65;;;0.35;;
63714;SDS011;49858;48.956;9.076;2022-07-12T09:51:45;0.20;;;0.20;;
63714;SDS011;49858;48.956;9.076;2022-07-12T09:54:14;0.30;;;0.30;;
63714;SDS011;49858;48.956;9.076;2022-07-12T09:56:44;0.50;;;0.40;;
63714;SDS011;49858;48.956;9.076;2022-07-12T09:59:16;0.63;;;0.30;;
63714;SDS011;49858;48.956;9.076;2022-07-12T10:01:49;0.70;;;0.50;;
63714;SDS011;49858;48.956;9.076;2022-07-12T10:04:18;0.73;;;0.40;;
63714;SDS011;49858;48.956;9.076;2022-07-12T10:06:46;2.25;;;0.38;;
63714;SDS011;49858;48.956;9.076;2022-07-12T10:09:13;0.93;;;0.40;;
63714;SDS011;49858;48.956;9.076;2022-07-12T10:11:41;0.57;;;0.30;;
63714;SDS011;49858;48.956;9.076;2022-07-12T10:14:09;0.40;;;0.30;;
63714;SDS011;49858;48.956;9.076;2022-07-12T10:16:37;1.13;;;0.40;;
63714;SDS011;49858;48.956;9.076;2022-07-12T10:19:21;0.45;;;0.30;;
63714;SDS011;49858;48.956;9.076;2022-07-12T10:21:53;0.52;;;0.30;;
63714;SDS011;49858;48.956;9.076;2022-07-12T10:27:27;0.55;;;0.50;;
63714;SDS011;49858;48.956;9.076;2022-07-12T10:32:49;0.75;;;0.40;;
63714;SDS011;49858;48.956;9.076;2022-07-12T10:35:20;2.40;;;0.50;;
63714;SDS011;49858;48.956;9.076;2022-07-12T10:40:49;0.43;;;0.30;;
63714;SDS011;49858;48.956;9.076;2022-07-12T10:43:20;0.70;;;0.30;;
63714;SDS011;49858;48.956;9.076;2022-07-12T10:46:19;2.10;;;0.60;;
63714;SDS011;49858;48.956;9.076;2022-07-12T10:48:49;0.55;;;0.30;;
63714;SDS011;49858;48.956;9.076;2022-07-12T10:51:17;2.05;;;0.40;;
63714;SDS011;49858;48.956;9.076;2022-07-12T10:53:46;0.60;;;0.40;;
63714;SDS011;49858;48.956;9.076;2022-07-12T10:56:16;0.55;;;0.40;;
63714;SDS011;49858;48.956;9.076;2022-07-12T10:58:45;0.30;;;0.30;;
63714;SDS011;49858;48.956;9.076;2022-07-12T11:01:13;3.20;;;0.30;;
63714;SDS011;49858;48.956;9.076;2022-07-12T11:03:42;0.90;;;0.40;;
63714;SDS011;49858;48.956;9.076;2022-07-12T11:06:11;2.75;;;0.50;;
63714;SDS011;49858;48.956;9.076;2022-07-12T11:08:51;0.85;;;0.30;;
63714;SDS011;49858;48.956;9.076;2022-07-12T11:11:22;0.50;;;0.30;;
63714;SDS011;49858;48.956;9.076;2022-07-12T11:13:51;0.60;;;0.32;;
63714;SDS011;49858;48.956;9.076;2022-07-12T11:16:19;0.40;;;0.40;;
63714;SDS011;49858;48.956;9.076;2022-07-12T11:18:46;1.05;;;0.30;;
63714;SDS011;49858;48.956;9.076;2022-07-12T11:21:14;0.50;;;0.40;;
63714;SDS011;49858;48.956;9.076;2022-07-12T11:23:41;1.85;;;0.30;;
63714;SDS011;49858;48.956;9.076;2022-07-12T11:26:10;0.45;;;0.40;;
63714;SDS011;49858;48.956;9.076;2022-07-12T11:28:38;0.43;;;0.20;;
63714;SDS011;49858;48.956;9.076;2022-07-12T11:31:07;0.65;;;0.30;;
63714;SDS011;49858;48.956;9.076;2022-07-12T11:33:35;0.32;;;0.22;;
63714;SDS011;49858;48.956;9.076;2022-07-12T11:36:04;0.50;;;0.32;;
63714;SDS011;49858;48.956;9.076;2022-07-12T11:38:32;0.70;;;0.40;;
63714;SDS011;49858;48.956;9.076;2022-07-12T11:41:00;1.55;;;1.10;;
63714;SDS011;49858;48.956;9.076;2022-07-12T11:43:29;0.65;;;0.30;;
63714;SDS011;49858;48.956;9.076;2022-07-12T11:45:57;1.67;;;0.40;;
63714;SDS011;49858;48.956;9.076;2022-07-12T11:48:24;1.58;;;0.40;;
63714;SDS011;49858;48.956;9.076;2022-07-12T11:50:51;0.75;;;0.32;;
63714;SDS011;49858;48.956;9.076;2022-07-12T11:53:19;0.57;;;0.32;;
63714;SDS011;49858;48.956;9.076;2022-07-12T11:55:47;0.77;;;0.40;;
63714;SDS011;49858;48.956;9.076;2022-07-12T11:58:16;0.75;;;0.30;;
63714;SDS011;49858;48.956;9.076;2022-07-12T12:00:45;1.73;;;0.47;;
63714;SDS011;49858;48.956;9.076;2022-07-12T12:03:13;1.50;;;0.40;;
63714;SDS011;49858;48.956;9.076;2022-07-12T12:05:42;0.80;;;0.43;;
63714;SDS011;49858;48.956;9.076;2022-07-12T12:08:09;0.50;;;0.40;;
63714;SDS011;49858;48.956;9.076;2022-07-12T12:10:38;0.50;;;0.40;;
63714;SDS011;49858;48.956;9.076;2022-07-12T12:13:12;0.38;;;0.30;;
63714;SDS011;49858;48.956;9.076;2022-07-12T12:15:39;0.65;;;0.30;;
63714;SDS011;49858;48.956;9.076;2022-07-12T12:18:08;1.23;;;0.30;;
63714;SDS011;49858;48.956;9.076;2022-07-12T12:20:35;0.73;;;0.40;;
63714;SDS011;49858;48.956;9.076;2022-07-12T12:23:04;1.95;;;0.50;;
63714;SDS011;49858;48.956;9.076;2022-07-12T12:25:32;0.85;;;0.50;;
63714;SDS011;49858;48.956;9.076;2022-07-12T12:28:00;1.60;;;0.60;;
63714;SDS011;49858;48.956;9.076;2022-07-12T12:30:28;1.30;;;0.40;;
63714;SDS011;49858;48.956;9.076;2022-07-12T12:32:57;0.55;;;0.30;;
63714;SDS011;49858;48.956;9.076;2022-07-12T12:35:31;0.60;;;0.40;;
63714;SDS011;49858;48.956;9.076;2022-07-12T12:37:59;0.43;;;0.40;;
63714;SDS011;49858;48.956;9.076;2022-07-12T12:40:27;0.57;;;0.38;;
63714;SDS011;49858;48.956;9.076;2022-07-12T12:43:04;0.93;;;0.57;;
63714;SDS011;49858;48.956;9.076;2022-07-12T12:45:32;1.40;;;0.47;;
63714;SDS011;49858;48.956;9.076;2022-07-12T12:48:00;2.45;;;0.30;;
63714;SDS011;49858;48.956;9.076;2022-07-12T12:50:39;1.33;;;0.38;;
63714;SDS011;49858;48.956;9.076;2022-07-12T12:53:14;0.60;;;0.40;;
63714;SDS011;49858;48.956;9.076;2022-07-12T12:55:43;2.45;;;0.40;;
63714;SDS011;49858;48.956;9.076;2022-07-12T12:58:11;1.17;;;0.40;;
63714;SDS011;49858;48.956;9.076;2022-07-12T13:00:39;2.20;;;0.38;;
63714;SDS011;49858;48.956;9.076;2022-07-12T13:03:07;2.35;;;0.43;;
63714;SDS011;49858;48.956;9.076;2022-07-12T13:05:34;0.90;;;0.50;;
63714;SDS011;49858;48.956;9.076;2022-07-12T13:08:03;1.73;;;0.50;;
63714;SDS011;49858;48.956;9.076;2022-07-12T13:10:31;0.70;;;0.40;;
63714;SDS011;49858;48.956;9.076;2022-07-12T13:12:59;0.93;;;0.40;;
63714;SDS011;49858;48.956;9.076;2022-07-12T13:15:26;0.80;;;0.40;;
63714;SDS011;49858;48.956;9.076;2022-07-12T13:17:54;0.80;;;0.45;;
63714;SDS011;49858;48.956;9.076;2022-07-12T13:20:21;0.70;;;0.30;;
63714;SDS011;49858;48.956;9.076;2022-07-12T13:22:48;0.50;;;0.40;;
63714;SDS011;49858;48.956;9.076;2022-07-12T13:25:16;0.40;;;0.30;;
63714;SDS011;49858;48.956;9.076;2022-07-12T13:27:43;0.88;;;0.32;;
63714;SDS011;49858;48.956;9.076;2022-07-12T13:30:11;0.45;;;0.30;;
63714;SDS011;49858;48.956;9.076;2022-07-12T13:32:40;3.83;;;0.40;;
63714;SDS011;49858;48.956;9.076;2022-07-12T13:35:07;1.42;;;0.55;;
63714;SDS011;49858;48.956;9.076;2022-07-12T13:37:36;2.78;;;0.50;;
63714;SDS011;49858;48.956;9.076;2022-07-12T13:40:05;1.60;;;0.47;;
63714;SDS011;49858;48.956;9.076;2022-07-12T13:42:44;1.10;;;0.40;;
63714;SDS011;49858;48.956;9.076;2022-07-12T13:45:13;0.47;;;0.40;;
63714;SDS011;49858;48.956;9.076;2022-07-12T13:47:41;1.10;;;0.50;;
63714;SDS011;49858;48.956;9.076;2022-07-12T13:50:09;0.70;;;0.40;;
63714;SDS011;49858;48.956;9.076;2022-07-12T13:52:37;0.55;;;0.50;;
63714;SDS011;49858;48.956;9.076;2022-07-12T13:55:06;2.00;;;0.57;;
63714;SDS011;49858;48.956;9.076;2022-07-12T13:57:33;0.50;;;0.47;;
63714;SDS011;49858;48.956;9.076;2022-07-12T14:00:02;2.05;;;0.50;;
63714;SDS011;49858;48.956;9.076;2022-07-12T14:02:37;0.77;;;0.50;;
63714;SDS011;49858;48.956;9.076;2022-07-12T14:05:06;4.20;;;0.40;;
63714;SDS011;49858;48.956;9.076;2022-07-12T14:07:35;0.47;;;0.40;;
63714;SDS011;49858;48.956;9.076;2022-07-12T14:10:03;1.70;;;0.50;;
63714;SDS011;49858;48.956;9.076;2022-07-12T14:12:31;0.50;;;0.40;;
63714;SDS011;49858;48.956;9.076;2022-07-12T14:14:58;1.63;;;0.40;;
63714;SDS011;49858;48.956;9.076;2022-07-12T14:17:47;0.52;;;0.40;;
63714;SDS011;49858;48.956;9.076;2022-07-12T14:20:16;1.52;;;0.60;;
63714;SDS011;49858;48.956;9.076;2022-07-12T14:22:44;0.82;;;0.47;;
63714;SDS011;49858;48.956;9.076;2022-07-12T14:25:11;1.30;;;0.40;;
63714;SDS011;49858;48.956;9.076;2022-07-12T14:27:38;0.63;;;0.40;;
63714;SDS011;49858;48.956;9.076;2022-07-12T14:30:06;0.82;;;0.50;;
63714;SDS011;49858;48.956;9.076;2022-07-12T14:32:36;1.15;;;0.60;;
63714;SDS011;49858;48.956;9.076;2022-07-12T14:35:06;0.60;;;0.40;;
63714;SDS011;49858;48.956;9.076;2022-07-12T14:37:33;0.57;;;0.43;;
63714;SDS011;49858;48.956;9.076;2022-07-12T14:40:00;2.35;;;0.40;;
63714;SDS011;49858;48.956;9.076;2022-07-12T14:42:27;0.80;;;0.50;;
63714;SDS011;49858;48.956;9.076;2022-07-12T14:44:54;0.68;;;0.40;;
63714;SDS011;49858;48.956;9.076;2022-07-12T14:47:21;1.60;;;1.00;;
63714;SDS011;49858;48.956;9.076;2022-07-12T14:49:47;4.70;;;2.75;;
63714;SDS011;49858;48.956;9.076;2022-07-12T14:52:16;1.77;;;0.70;;
63714;SDS011;49858;48.956;9.076;2022-07-12T14:54:44;1.23;;;0.50;;
63714;SDS011;49858;48.956;9.076;2022-07-12T14:57:11;1.60;;;0.40;;
63714;SDS011;49858;48.956;9.076;2022-07-12T14:59:37;0.50;;;0.40;;
63714;SDS011;49858;48.956;9.076;2022-07-12T15:02:04;1.60;;;0.40;;
63714;SDS011;49858;48.956;9.076;2022-07-12T15:04:31;0.70;;;0.40;;
63714;SDS011;49858;48.956;9.076;2022-07-12T15:06:58;1.85;;;0.70;;